LLES weather

Ein Shemer Airfield
Ein Shemer, Northern District, Israel

Public forecast

Using degrees Celsius for public forecast. Weather courtesy of forecast.io.

METAR (pilot weather report)

Closest report is Haifa International Airport, 22.2 nm (41.1 km) N. Retrieved 2019/08/22 16:50 UTC (43 minutes ago):

LLHA 221650Z 34008KT CAVOK 29/23 Q1008

TAF (pilot weather forecast)

Closest forecast is Herzliya Airport, 17.9 nm (33.2 km) SSW. Retrieved 2019/08/22 12:00 UTC (6 hours ago):

TAF LLHZ 221111Z 2212/2312 32010KT CAVOK BECMG 2216/2218 VRB03KT FEW025 TEMPO 2218/2306 SCT020 BECMG 2306/2308 32012KT FEW030 TX30/2212Z TN23/2304Z